Tunuyan, Argentina
Current Conditions -  °F | °C
As of 10:00 PM on Friday 19 Dec 2014 (Local Time) from SAME Reporting Station
Few Clouds Few Clouds  
Wind Chill: 88°   Ceiling: Unl
Heat Index: 88°   Visibility: 6mi
Dew Point: 52°   Wind: 5mph
Humidity: 29%   Direction: 320°NW
Pressure: 29.5"   Gusts: NA
Location:  33.57°S, 69.02°W
Report Text: SAME 200100Z 32004KT 9999 FEW040 FEW045CB31/11 Q0999
Loading
Personal Weather Stations






























Interactive Weather Map New forecast layout! Learn more

10-Day Weather Forecast

Advertisements
Track Severe Weather on mobile